CYIK

Ivujivik Airport

ICAO Code CYIK
IATA Code YIK
Name Ivujivik Airport
Location Ivujivik, Quebec, CA
Elevation 127 Feet / 38.7 Meters
Latitude 62.41722222
Longitude -77.92527778
METAR CYIK 181900Z 06012KT 7SM FEW005 BKN006 BKN009 BKN010 OVC013 09/08 A2980 RMK ST2ST3ST1ST1ST1 LAST STFD OBS/NEXT 191200UTC SLP097
Extra information Display NOTAMS
Display Charts
Runway Length Width Surface Elevation
07 3521 ft 100 ft GVL 105 ft
25 3521 ft 100 ft GVL 124 ft